createdAt,value
2023-02-07T00:01:34.053Z,48.00
2023-02-07T00:04:02.226Z,47.00
2023-02-07T00:06:33.509Z,47.80
2023-02-07T00:09:04.729Z,50.50
2023-02-07T00:11:32.981Z,48.90
2023-02-07T00:14:01.204Z,46.60
2023-02-07T00:16:29.360Z,46.00
2023-02-07T00:19:00.031Z,49.50
2023-02-07T00:21:29.202Z,43.90
2023-02-07T00:23:58.265Z,45.40
2023-02-07T00:26:27.865Z,45.30
2023-02-07T00:28:56.761Z,44.70
2023-02-07T00:31:31.233Z,45.20
2023-02-07T00:34:02.276Z,46.90
2023-02-07T00:36:33.616Z,43.50
2023-02-07T00:39:05.485Z,44.60
2023-02-07T00:41:34.939Z,44.00
2023-02-07T00:44:03.574Z,43.10
2023-02-07T00:46:32.944Z,42.40
2023-02-07T00:49:01.313Z,42.50
2023-02-07T00:51:31.516Z,41.60
2023-02-07T00:54:00.645Z,42.00
2023-02-07T00:56:30.067Z,43.80
2023-02-07T00:58:59.935Z,42.30
2023-02-07T01:01:28.300Z,42.30
2023-02-07T01:03:57.637Z,44.20
2023-02-07T01:06:25.966Z,42.00
2023-02-07T01:09:01.665Z,42.20
2023-02-07T01:11:30.399Z,41.50
2023-02-07T01:14:01.167Z,42.70
2023-02-07T01:16:32.294Z,41.60
2023-02-07T01:19:04.737Z,41.70
2023-02-07T01:21:32.720Z,39.10
2023-02-07T01:24:00.856Z,40.20
2023-02-07T01:26:28.941Z,39.80
2023-02-07T01:28:57.172Z,39.40
2023-02-07T01:31:26.066Z,39.30
2023-02-07T01:33:59.054Z,40.30
2023-02-07T01:36:28.900Z,39.40
2023-02-07T01:38:57.993Z,40.20
2023-02-07T01:41:27.999Z,41.90
2023-02-07T01:44:10.161Z,42.70
2023-02-07T01:46:52.364Z,42.30
2023-02-07T01:49:25.847Z,42.70
2023-02-07T01:51:58.458Z,42.30
2023-02-07T01:54:32.455Z,39.70
2023-02-07T01:57:07.105Z,41.20
2023-02-07T01:59:41.130Z,42.50
2023-02-07T02:02:09.422Z,42.00
2023-02-07T02:04:38.790Z,42.60
2023-02-07T02:07:10.165Z,43.20
2023-02-07T02:09:39.406Z,41.50
2023-02-07T02:15:09.682Z,41.30
2023-02-07T02:17:57.131Z,40.60
2023-02-07T02:20:28.075Z,40.40
2023-02-07T02:23:17.643Z,43.60
2023-02-07T02:25:57.779Z,43.80
2023-02-07T02:28:50.976Z,43.50
2023-02-07T02:31:58.090Z,43.50
2023-02-07T02:35:05.142Z,42.20
2023-02-07T02:37:42.751Z,41.20
2023-02-07T02:40:23.328Z,40.90
2023-02-07T02:42:59.816Z,41.70
2023-02-07T02:45:34.406Z,43.90
2023-02-07T02:48:03.972Z,43.50
2023-02-07T02:50:35.027Z,44.40
2023-02-07T02:53:03.170Z,45.50
2023-02-07T02:55:53.999Z,43.00
2023-02-07T02:58:35.043Z,44.80
2023-02-07T03:01:17.458Z,44.10
2023-02-07T03:03:49.283Z,44.50
2023-02-07T03:09:02.660Z,43.10
2023-02-07T03:11:39.327Z,41.30
2023-02-07T03:14:25.426Z,42.70
2023-02-07T03:17:45.933Z,43.50
2023-02-07T03:20:26.385Z,39.80
2023-02-07T03:22:57.007Z,41.10
2023-02-07T03:25:27.621Z,44.10
2023-02-07T03:27:56.523Z,41.90
2023-02-07T03:30:28.936Z,43.30
2023-02-07T03:33:00.154Z,44.50
2023-02-07T03:35:54.680Z,42.90
2023-02-07T03:38:23.028Z,43.60
2023-02-07T03:41:02.336Z,40.80
2023-02-07T03:43:33.809Z,43.30
2023-02-07T03:46:01.752Z,42.00
2023-02-07T03:48:29.786Z,43.30
2023-02-07T03:50:57.925Z,43.00
2023-02-07T03:53:27.337Z,40.60
2023-02-07T03:55:55.682Z,41.50
2023-02-07T03:58:23.650Z,43.60
2023-02-07T04:05:23.887Z,40.20
2023-02-07T04:07:52.126Z,40.50
2023-02-07T04:10:20.155Z,40.50
2023-02-07T04:12:48.088Z,41.10
2023-02-07T04:15:16.176Z,40.40
2023-02-07T04:17:44.176Z,41.70
2023-02-07T04:20:12.670Z,42.30
2023-02-07T04:22:40.714Z,41.40
2023-02-07T04:25:08.851Z,42.20
2023-02-07T04:27:37.261Z,41.90
2023-02-07T04:34:36.810Z,41.10
2023-02-07T04:37:04.940Z,40.30
2023-02-07T04:39:32.867Z,38.80
2023-02-07T04:42:00.978Z,38.60
2023-02-07T04:44:29.165Z,38.60
2023-02-07T04:46:57.183Z,39.40
2023-02-07T04:49:25.240Z,37.60
2023-02-07T04:51:53.718Z,39.70
2023-02-07T04:54:21.698Z,38.30
2023-02-07T04:56:49.653Z,36.50
2023-02-07T04:59:17.726Z,37.00
2023-02-07T05:01:45.768Z,35.90
2023-02-07T05:04:13.811Z,35.20
2023-02-07T05:06:41.865Z,36.80
2023-02-07T05:09:10.053Z,36.50
2023-02-07T05:11:38.213Z,35.40
2023-02-07T05:14:07.702Z,32.80
2023-02-07T05:16:36.042Z,32.50
2023-02-07T05:19:04.384Z,31.70
2023-02-07T05:21:33.069Z,32.40
2023-02-07T05:24:01.184Z,34.60
2023-02-07T05:26:29.177Z,33.00
2023-02-07T05:28:57.172Z,32.90
2023-02-07T05:31:45.436Z,31.80
2023-02-07T05:34:13.673Z,32.40
2023-02-07T05:36:41.845Z,32.30
2023-02-07T05:39:09.952Z,29.70
2023-02-07T05:41:37.971Z,31.60
2023-02-07T05:44:07.028Z,29.40
2023-02-07T05:46:37.219Z,29.80
2023-02-07T05:49:05.183Z,30.80
2023-02-07T05:51:33.199Z,30.10
2023-02-07T05:54:02.675Z,27.80
2023-02-07T05:56:30.777Z,27.20
2023-02-07T05:58:59.830Z,28.60
2023-02-07T06:01:28.889Z,27.30
2023-02-07T06:03:57.194Z,27.70
2023-02-07T06:06:25.426Z,28.60
2023-02-07T06:08:53.476Z,28.10
2023-02-07T06:11:22.559Z,28.80
2023-02-07T06:13:50.630Z,27.70
2023-02-07T06:16:18.698Z,27.00
2023-02-07T06:18:46.850Z,27.90
2023-02-07T06:21:16.061Z,26.00
2023-02-07T06:23:47.132Z,28.60
2023-02-07T06:26:15.878Z,26.80
2023-02-07T06:28:44.506Z,26.90
2023-02-07T06:31:12.816Z,25.90
2023-02-07T06:33:41.057Z,24.20
2023-02-07T06:36:09.613Z,25.90
2023-02-07T06:38:37.573Z,26.00
2023-02-07T06:41:05.704Z,27.30
2023-02-07T06:43:34.081Z,26.20
2023-02-07T06:46:02.295Z,26.10
2023-02-07T06:48:30.380Z,25.30
2023-02-07T06:50:58.441Z,24.80
2023-02-07T06:53:26.876Z,24.00
2023-02-07T06:55:55.661Z,23.30
2023-02-07T06:58:23.911Z,24.30
2023-02-07T07:00:52.140Z,24.50
2023-02-07T07:03:20.524Z,24.90
2023-02-07T07:05:48.694Z,24.20
2023-02-07T07:08:18.794Z,23.10
2023-02-07T07:10:47.359Z,24.00
2023-02-07T07:13:15.423Z,22.50
2023-02-07T07:15:43.576Z,23.20
2023-02-07T07:18:11.709Z,21.70
2023-02-07T07:20:39.875Z,21.70
2023-02-07T07:23:07.986Z,23.00
2023-02-07T07:25:36.506Z,24.00
2023-02-07T07:28:04.772Z,25.80
2023-02-07T07:30:33.422Z,23.00
2023-02-07T07:33:01.626Z,22.40
2023-02-07T07:35:29.996Z,23.70
2023-02-07T07:37:58.163Z,23.20
2023-02-07T07:40:26.377Z,23.10
2023-02-07T07:42:54.695Z,21.20
2023-02-07T07:45:30.169Z,23.50
2023-02-07T07:47:58.254Z,21.90
2023-02-07T07:50:26.429Z,23.30
2023-02-07T07:52:54.404Z,21.70
2023-02-07T07:55:22.589Z,22.00
2023-02-07T07:57:50.668Z,20.90
2023-02-07T08:00:19.012Z,20.70
2023-02-07T08:02:47.199Z,21.30
2023-02-07T08:05:15.927Z,21.30
2023-02-07T08:07:44.082Z,20.80
2023-02-07T08:10:12.096Z,20.60
2023-02-07T08:12:41.135Z,21.70
2023-02-07T08:15:10.161Z,22.60
2023-02-07T08:17:38.272Z,23.30
2023-02-07T08:20:06.794Z,21.90
2023-02-07T08:22:34.788Z,20.60
2023-02-07T08:25:03.127Z,21.30
2023-02-07T08:27:31.330Z,21.80
2023-02-07T08:29:59.537Z,21.70
2023-02-07T08:32:29.669Z,21.90
2023-02-07T08:34:57.921Z,21.80
2023-02-07T08:37:26.134Z,22.70
2023-02-07T08:39:54.648Z,20.40
2023-02-07T08:42:22.979Z,21.00
2023-02-07T08:44:51.046Z,20.90
2023-02-07T08:47:19.982Z,21.50
2023-02-07T08:49:48.204Z,20.50
2023-02-07T08:52:16.549Z,20.10
2023-02-07T08:54:44.806Z,21.20
2023-02-07T08:57:12.974Z,21.60
2023-02-07T08:59:41.124Z,20.40
2023-02-07T09:02:11.830Z,20.60
2023-02-07T09:04:49.631Z,19.90
2023-02-07T09:07:18.266Z,20.40
2023-02-07T09:09:46.644Z,19.00
2023-02-07T09:12:14.947Z,21.10
2023-02-07T09:14:43.116Z,19.80
2023-02-07T09:17:11.247Z,19.50
2023-02-07T09:19:39.344Z,17.70
2023-02-07T09:22:07.743Z,17.10
2023-02-07T09:24:35.833Z,19.30
2023-02-07T09:27:05.533Z,18.20
2023-02-07T09:29:33.867Z,18.80
2023-02-07T09:32:02.307Z,17.40
2023-02-07T09:34:33.398Z,18.40
2023-02-07T09:37:02.644Z,18.50
2023-02-07T09:39:33.109Z,18.80
2023-02-07T09:42:28.430Z,18.20
2023-02-07T09:45:06.106Z,18.70
2023-02-07T09:47:38.090Z,18.10
2023-02-07T09:52:49.489Z,17.60
2023-02-07T09:55:32.708Z,18.90
2023-02-07T09:58:11.926Z,19.90
2023-02-07T10:00:42.472Z,20.20
2023-02-07T10:03:18.879Z,19.40
2023-02-07T10:06:03.693Z,20.50
2023-02-07T10:08:41.278Z,19.80
2023-02-07T10:11:47.419Z,20.40
2023-02-07T10:14:27.344Z,19.50
2023-02-07T10:17:04.611Z,19.60
2023-02-07T10:19:50.526Z,18.00
2023-02-07T10:22:34.232Z,18.80
2023-02-07T10:25:20.141Z,17.10
2023-02-07T10:28:12.352Z,16.70
2023-02-07T10:33:24.381Z,18.00
2023-02-07T10:35:52.666Z,15.90
2023-02-07T10:38:31.034Z,17.80
2023-02-07T10:41:28.720Z,17.90
2023-02-07T10:43:56.985Z,17.30
2023-02-07T10:46:25.521Z,19.20
2023-02-07T10:48:53.908Z,19.20
2023-02-07T10:51:32.479Z,18.70
2023-02-07T10:54:07.671Z,17.60
2023-02-07T10:56:48.048Z,19.40
2023-02-07T10:59:40.733Z,20.30
2023-02-07T11:04:42.536Z,17.80
2023-02-07T11:07:15.681Z,18.30
2023-02-07T11:09:43.605Z,17.70
2023-02-07T11:12:29.554Z,16.40
2023-02-07T11:15:03.568Z,15.80
2023-02-07T11:17:34.656Z,16.40
2023-02-07T11:20:05.574Z,17.90
2023-02-07T11:22:34.447Z,16.70
2023-02-07T11:25:07.202Z,18.00
2023-02-07T11:27:41.538Z,18.30
2023-02-07T11:30:20.600Z,17.20
2023-02-07T11:33:23.792Z,16.90
2023-02-07T11:36:23.536Z,17.60
2023-02-07T11:38:59.830Z,16.00
2023-02-07T11:41:31.012Z,16.90
2023-02-07T11:44:16.254Z,15.40
2023-02-07T11:46:48.864Z,16.70
2023-02-07T11:49:30.269Z,16.30
2023-02-07T11:52:01.941Z,15.70
2023-02-07T11:54:34.197Z,16.10
2023-02-07T11:57:06.262Z,14.90
2023-02-07T11:59:34.892Z,15.40
2023-02-07T12:02:25.101Z,15.70
2023-02-07T12:04:56.733Z,15.40
2023-02-07T12:07:41.228Z,16.60
2023-02-07T12:10:22.851Z,16.50
2023-02-07T12:13:20.088Z,16.40
2023-02-07T12:15:56.468Z,16.50
2023-02-07T12:18:33.665Z,16.00
2023-02-07T12:21:17.635Z,15.80
2023-02-07T12:23:52.473Z,15.50
2023-02-07T12:26:32.855Z,16.80
2023-02-07T12:29:22.939Z,17.00
2023-02-07T12:31:57.336Z,15.50
2023-02-07T12:34:41.756Z,16.20
2023-02-07T12:37:21.706Z,15.00
2023-02-07T12:39:59.652Z,16.60
2023-02-07T12:42:38.159Z,16.40
2023-02-07T12:45:10.505Z,15.00
2023-02-07T12:48:10.519Z,16.30
2023-02-07T12:50:39.291Z,16.80
2023-02-07T12:53:49.036Z,15.90
2023-02-07T12:56:29.028Z,16.20
2023-02-07T12:59:18.407Z,16.90
2023-02-07T13:02:14.677Z,17.00
2023-02-07T13:04:52.384Z,16.80
2023-02-07T13:07:45.267Z,16.50
2023-02-07T13:10:36.468Z,16.40
2023-02-07T13:13:14.263Z,16.50
2023-02-07T13:15:58.167Z,18.40
2023-02-07T13:18:46.181Z,15.80
2023-02-07T13:21:20.298Z,16.80
2023-02-07T13:23:49.496Z,16.10
2023-02-07T13:26:21.149Z,15.30
2023-02-07T13:28:51.703Z,15.60
2023-02-07T13:31:32.314Z,14.80
2023-02-07T13:34:01.717Z,14.60
2023-02-07T13:36:43.046Z,13.70
2023-02-07T13:39:48.482Z,15.50
2023-02-07T13:42:50.403Z,15.70
2023-02-07T13:45:28.485Z,15.10
2023-02-07T13:48:23.113Z,15.80
2023-02-07T13:51:05.314Z,15.40
2023-02-07T13:53:51.718Z,14.00
2023-02-07T13:56:49.945Z,14.10
2023-02-07T13:59:38.805Z,16.00
2023-02-07T14:02:14.675Z,16.10
2023-02-07T14:04:49.983Z,15.80
2023-02-07T14:07:31.416Z,16.10
2023-02-07T14:09:59.922Z,16.80
2023-02-07T14:12:27.764Z,16.00
2023-02-07T14:15:03.898Z,17.00
2023-02-07T14:17:31.760Z,16.60
2023-02-07T14:20:01.168Z,16.10
2023-02-07T14:22:55.368Z,16.20
2023-02-07T14:25:41.476Z,17.50
2023-02-07T14:28:18.978Z,19.70
2023-02-07T14:30:53.356Z,22.50
2023-02-07T14:34:06.279Z,20.90
2023-02-07T14:36:35.987Z,22.00
2023-02-07T14:39:23.191Z,22.10
2023-02-07T14:41:52.454Z,19.90
2023-02-07T14:44:43.154Z,21.50
2023-02-07T14:47:21.996Z,22.60
2023-02-07T14:49:54.239Z,22.60
2023-02-07T14:52:35.441Z,19.90
2023-02-07T14:55:26.102Z,18.80
2023-02-07T14:58:06.854Z,18.80
2023-02-07T15:00:54.392Z,20.70
2023-02-07T15:03:22.319Z,20.80
2023-02-07T15:05:52.968Z,19.40
2023-02-07T15:08:23.961Z,19.40
2023-02-07T15:11:02.508Z,19.50
2023-02-07T15:13:41.584Z,22.70
2023-02-07T15:16:22.096Z,21.30
2023-02-07T15:19:24.301Z,21.10
2023-02-07T15:21:53.998Z,20.30
2023-02-07T15:24:29.837Z,19.50
2023-02-07T15:27:02.469Z,19.90
2023-02-07T15:29:33.511Z,21.60
2023-02-07T15:32:01.765Z,22.70
2023-02-07T15:34:35.183Z,25.80
2023-02-07T15:37:20.930Z,24.40
2023-02-07T15:39:50.977Z,25.40
2023-02-07T15:42:20.654Z,24.70
2023-02-07T15:44:50.419Z,25.90
2023-02-07T15:47:32.970Z,28.50
2023-02-07T15:50:08.911Z,29.20
2023-02-07T15:52:44.094Z,29.60
2023-02-07T15:55:26.826Z,28.30
2023-02-07T15:57:55.920Z,31.60
2023-02-07T16:00:39.017Z,24.90
2023-02-07T16:03:21.803Z,22.60
2023-02-07T16:06:10.167Z,22.20
2023-02-07T16:08:42.200Z,23.30
2023-02-07T16:13:59.308Z,21.00
2023-02-07T16:16:37.013Z,22.10
2023-02-07T16:19:15.623Z,21.90
2023-02-07T16:21:44.814Z,21.30
2023-02-07T16:24:23.150Z,25.30
2023-02-07T16:26:51.437Z,21.80
2023-02-07T16:29:23.043Z,22.90
2023-02-07T16:31:52.173Z,20.90
2023-02-07T16:34:21.396Z,21.50
2023-02-07T16:36:52.332Z,21.50
2023-02-07T16:39:21.434Z,19.60
2023-02-07T16:41:54.696Z,21.70
2023-02-07T16:44:25.025Z,20.60
2023-02-07T16:46:53.298Z,19.80
2023-02-07T16:49:23.713Z,20.00
2023-02-07T16:51:52.652Z,19.80
2023-02-07T16:54:20.822Z,20.30
2023-02-07T16:56:53.827Z,21.60
2023-02-07T16:59:22.681Z,21.60
2023-02-07T17:01:52.624Z,21.50
2023-02-07T17:04:21.600Z,21.50
2023-02-07T17:06:50.269Z,20.60
2023-02-07T17:09:24.213Z,21.90
2023-02-07T17:11:53.184Z,22.30
2023-02-07T17:14:22.124Z,22.30
2023-02-07T17:16:50.124Z,22.70
2023-02-07T17:19:23.957Z,23.00
2023-02-07T17:21:52.897Z,22.90
2023-02-07T17:24:20.988Z,22.60
2023-02-07T17:26:54.503Z,23.40
2023-02-07T17:29:22.767Z,25.00
2023-02-07T17:31:51.509Z,23.50
2023-02-07T17:34:19.772Z,24.90
2023-02-07T17:36:49.802Z,24.00
2023-02-07T17:39:19.178Z,25.90
2023-02-07T17:41:47.333Z,26.90
2023-02-07T17:44:17.008Z,26.90
2023-02-07T17:46:45.028Z,27.60
2023-02-07T17:49:14.852Z,27.10
2023-02-07T17:51:42.997Z,27.40
2023-02-07T17:54:11.397Z,28.00
2023-02-07T17:56:39.374Z,27.70
2023-02-07T17:59:10.130Z,27.00
2023-02-07T18:01:38.148Z,25.70
2023-02-07T18:04:06.494Z,25.70
2023-02-07T18:06:34.610Z,26.60
2023-02-07T18:09:03.055Z,26.70
2023-02-07T18:11:31.553Z,26.10
2023-02-07T18:14:01.964Z,26.40
2023-02-07T18:16:29.969Z,25.80
2023-02-07T18:18:58.282Z,27.00
2023-02-07T18:21:28.174Z,27.10
2023-02-07T18:23:56.993Z,26.40
2023-02-07T18:26:25.092Z,26.50
2023-02-07T18:28:53.166Z,27.10
2023-02-07T18:31:24.102Z,26.30
2023-02-07T18:33:53.373Z,27.30
2023-02-07T18:36:23.442Z,25.70
2023-02-07T18:38:51.766Z,26.60
2023-02-07T18:41:23.668Z,26.90
2023-02-07T18:46:21.364Z,25.20
2023-02-07T18:48:54.343Z,25.40
2023-02-07T18:51:23.070Z,24.40
2023-02-07T18:53:51.624Z,25.30
2023-02-07T18:56:22.407Z,25.80
2023-02-07T18:58:56.908Z,27.00
2023-02-07T19:04:36.830Z,24.90
2023-02-07T19:07:06.539Z,25.70
2023-02-07T19:09:34.950Z,25.20
2023-02-07T19:12:03.010Z,24.80
2023-02-07T19:14:31.974Z,24.10
2023-02-07T19:17:00.174Z,24.90
2023-02-07T19:19:30.686Z,24.50
2023-02-07T19:21:58.736Z,26.20
2023-02-07T19:24:28.149Z,25.30
2023-02-07T19:26:59.355Z,25.00
2023-02-07T19:29:30.306Z,25.20
2023-02-07T19:32:05.507Z,28.00
2023-02-07T19:34:34.917Z,27.70
2023-02-07T19:37:02.848Z,27.10
2023-02-07T19:39:30.918Z,26.40
2023-02-07T19:41:58.921Z,28.60
2023-02-07T19:44:26.982Z,27.30
2023-02-07T19:46:54.926Z,26.80
2023-02-07T19:49:22.953Z,26.40
2023-02-07T19:51:51.990Z,26.20
2023-02-07T19:54:20.052Z,25.20
2023-02-07T19:56:49.761Z,25.20
2023-02-07T19:59:18.935Z,26.30
2023-02-07T20:01:46.884Z,25.90
2023-02-07T20:04:15.105Z,24.40
2023-02-07T20:06:43.069Z,25.60
2023-02-07T20:09:11.079Z,25.80
2023-02-07T20:11:39.266Z,26.00
2023-02-07T20:14:07.907Z,27.30
2023-02-07T20:16:38.955Z,26.70
2023-02-07T20:19:07.955Z,26.00
2023-02-07T20:21:37.353Z,26.70
2023-02-07T20:24:06.646Z,26.20
2023-02-07T20:26:40.336Z,27.70
2023-02-07T20:29:11.947Z,26.40
2023-02-07T20:31:41.648Z,27.60
2023-02-07T20:34:10.379Z,26.60
2023-02-07T20:36:43.505Z,28.60
2023-02-07T20:39:14.454Z,29.00
2023-02-07T20:41:43.333Z,29.20
2023-02-07T20:44:15.507Z,28.70
2023-02-07T20:46:47.141Z,29.80
2023-02-07T20:51:48.656Z,27.60
2023-02-07T20:54:18.085Z,28.60
2023-02-07T20:56:46.255Z,28.70
2023-02-07T20:59:26.203Z,29.70
2023-02-07T21:01:55.101Z,28.10
2023-02-07T21:04:23.260Z,30.10
2023-02-07T21:06:51.232Z,29.10
2023-02-07T21:09:19.668Z,29.70
2023-02-07T21:11:50.893Z,29.00
2023-02-07T21:14:27.833Z,27.70
2023-02-07T21:16:58.564Z,27.20
2023-02-07T21:19:27.170Z,25.80
2023-02-07T21:21:55.709Z,25.00
2023-02-07T21:24:23.834Z,23.90
2023-02-07T21:26:53.882Z,24.50
2023-02-07T21:29:22.833Z,22.50
2023-02-07T21:31:51.953Z,21.30
2023-02-07T21:34:25.358Z,22.50
2023-02-07T21:36:53.772Z,23.00
2023-02-07T21:39:24.275Z,22.90
2023-02-07T21:41:52.342Z,22.50
2023-02-07T21:44:22.108Z,19.70
2023-02-07T21:46:51.070Z,20.60
2023-02-07T21:49:20.979Z,21.20
2023-02-07T21:51:53.722Z,20.60
2023-02-07T21:54:22.042Z,21.00
2023-02-07T21:56:51.406Z,21.00
2023-02-07T21:59:20.960Z,20.50
2023-02-07T22:01:49.420Z,20.30
2023-02-07T22:04:17.867Z,18.70
2023-02-07T22:06:48.264Z,20.70
2023-02-07T22:09:18.223Z,18.40
2023-02-07T22:11:46.115Z,18.80
2023-02-07T22:14:14.465Z,18.70
2023-02-07T22:16:42.881Z,16.90
2023-02-07T22:19:13.547Z,19.20
2023-02-07T22:21:42.015Z,20.00
2023-02-07T22:24:12.280Z,19.90
2023-02-07T22:26:40.707Z,19.50
2023-02-07T22:29:09.513Z,20.70
2023-02-07T22:31:39.879Z,19.00
2023-02-07T22:34:12.683Z,19.20
2023-02-07T22:39:13.362Z,17.70
2023-02-07T22:41:42.594Z,17.10
2023-02-07T22:44:11.252Z,18.10
2023-02-07T22:46:39.849Z,18.70
2023-02-07T22:49:09.481Z,17.80
2023-02-07T22:51:38.670Z,18.40
2023-02-07T22:54:10.158Z,18.70
2023-02-07T22:56:38.994Z,13.30
2023-02-07T22:59:07.260Z,18.50
2023-02-07T23:01:39.177Z,17.80
2023-02-07T23:04:11.782Z,18.10
2023-02-07T23:06:39.825Z,18.50
2023-02-07T23:09:08.225Z,18.80
2023-02-07T23:11:36.642Z,18.80
2023-02-07T23:14:06.840Z,19.50
2023-02-07T23:16:36.260Z,18.90
2023-02-07T23:19:12.650Z,20.40
2023-02-07T23:21:40.657Z,20.70
2023-02-07T23:24:08.902Z,19.50
2023-02-07T23:26:37.572Z,20.90
2023-02-07T23:29:05.772Z,20.80
2023-02-07T23:31:34.851Z,20.70
2023-02-07T23:34:03.242Z,21.50
2023-02-07T23:36:31.245Z,22.40
2023-02-07T23:38:59.215Z,23.90
2023-02-07T23:41:27.636Z,24.80
2023-02-07T23:43:57.032Z,26.20
2023-02-07T23:46:25.041Z,23.80
2023-02-07T23:48:53.760Z,23.10
2023-02-07T23:51:21.903Z,21.20
2023-02-07T23:53:49.856Z,21.10
2023-02-07T23:56:20.955Z,20.20
2023-02-07T23:58:50.196Z,13.70
